sensor_id;sensor_type;location;lat;lon;timestamp;pressure;altitude;pressure_sealevel;temperature;humidity
43330;BME280;28928;60.024;30.286;2022-07-09T00:00:38;101025.77;;;19.48;57.30
43330;BME280;28928;60.024;30.286;2022-07-09T00:03:09;101028.95;;;19.57;57.05
43330;BME280;28928;60.024;30.286;2022-07-09T00:05:40;101024.48;;;19.55;56.84
43330;BME280;28928;60.024;30.286;2022-07-09T00:08:11;101020.66;;;19.58;56.93
43330;BME280;28928;60.024;30.286;2022-07-09T00:10:42;101017.87;;;19.47;56.91
43330;BME280;28928;60.024;30.286;2022-07-09T00:13:13;101021.69;;;19.49;56.80
43330;BME280;28928;60.024;30.286;2022-07-09T00:15:44;101022.84;;;19.47;56.77
43330;BME280;28928;60.024;30.286;2022-07-09T00:18:15;101025.27;;;19.38;57.00
43330;BME280;28928;60.024;30.286;2022-07-09T00:20:46;101019.00;;;19.50;56.92
43330;BME280;28928;60.024;30.286;2022-07-09T00:25:54;101013.88;;;19.77;57.80
43330;BME280;28928;60.024;30.286;2022-07-09T00:28:25;101013.11;;;19.65;56.41
43330;BME280;28928;60.024;30.286;2022-07-09T00:30:56;101010.53;;;19.78;57.26
43330;BME280;28928;60.024;30.286;2022-07-09T00:33:27;101011.27;;;19.96;56.88
43330;BME280;28928;60.024;30.286;2022-07-09T00:35:58;101012.06;;;19.63;55.78
43330;BME280;28928;60.024;30.286;2022-07-09T00:38:29;101002.53;;;19.36;56.30
43330;BME280;28928;60.024;30.286;2022-07-09T00:40:59;101000.24;;;19.29;56.78
43330;BME280;28928;60.024;30.286;2022-07-09T00:43:31;101000.39;;;19.19;56.73
43330;BME280;28928;60.024;30.286;2022-07-09T00:46:02;101001.28;;;19.15;57.08
43330;BME280;28928;60.024;30.286;2022-07-09T00:48:33;100994.39;;;18.93;57.33
43330;BME280;28928;60.024;30.286;2022-07-09T00:53:45;100998.74;;;19.11;57.94
43330;BME280;28928;60.024;30.286;2022-07-09T00:56:17;100993.25;;;19.07;57.05
43330;BME280;28928;60.024;30.286;2022-07-09T00:58:48;100988.91;;;19.11;56.90
43330;BME280;28928;60.024;30.286;2022-07-09T01:01:20;100988.64;;;19.15;56.61
43330;BME280;28928;60.024;30.286;2022-07-09T01:03:52;100990.30;;;19.17;56.53
43330;BME280;28928;60.024;30.286;2022-07-09T01:06:23;100992.48;;;19.12;56.60
43330;BME280;28928;60.024;30.286;2022-07-09T01:08:53;100986.98;;;19.13;56.50
43330;BME280;28928;60.024;30.286;2022-07-09T01:11:25;100982.91;;;19.03;56.24
43330;BME280;28928;60.024;30.286;2022-07-09T01:13:56;100981.77;;;19.05;56.44
43330;BME280;28928;60.024;30.286;2022-07-09T01:16:32;100977.91;;;19.13;56.54
43330;BME280;28928;60.024;30.286;2022-07-09T01:19:04;100980.59;;;19.18;56.33
43330;BME280;28928;60.024;30.286;2022-07-09T01:21:35;100983.02;;;19.26;56.03
43330;BME280;28928;60.024;30.286;2022-07-09T01:24:06;100980.83;;;19.43;56.22
43330;BME280;28928;60.024;30.286;2022-07-09T01:26:37;100972.03;;;19.40;55.65
43330;BME280;28928;60.024;30.286;2022-07-09T01:29:08;100974.97;;;19.18;55.79
43330;BME280;28928;60.024;30.286;2022-07-09T01:31:40;100974.36;;;19.07;56.07
43330;BME280;28928;60.024;30.286;2022-07-09T01:34:11;100975.38;;;18.99;56.46
43330;BME280;28928;60.024;30.286;2022-07-09T01:36:41;100974.22;;;19.01;55.96
43330;BME280;28928;60.024;30.286;2022-07-09T01:39:13;100980.34;;;18.82;56.81
43330;BME280;28928;60.024;30.286;2022-07-09T01:41:44;100974.09;;;18.94;58.43
43330;BME280;28928;60.024;30.286;2022-07-09T01:44:15;100977.02;;;19.06;56.84
43330;BME280;28928;60.024;30.286;2022-07-09T01:46:46;100979.70;;;19.11;56.29
43330;BME280;28928;60.024;30.286;2022-07-09T01:49:16;100972.67;;;19.22;56.28
43330;BME280;28928;60.024;30.286;2022-07-09T01:51:47;100974.72;;;19.22;56.13
43330;BME280;28928;60.024;30.286;2022-07-09T01:54:18;100977.15;;;19.24;55.84
43330;BME280;28928;60.024;30.286;2022-07-09T01:56:49;100973.95;;;19.32;56.14
43330;BME280;28928;60.024;30.286;2022-07-09T01:59:19;100973.18;;;19.37;56.14
43330;BME280;28928;60.024;30.286;2022-07-09T02:01:50;100971.27;;;19.33;55.99
43330;BME280;28928;60.024;30.286;2022-07-09T02:04:21;100981.98;;;19.29;56.28
43330;BME280;28928;60.024;30.286;2022-07-09T02:06:52;100973.56;;;19.18;56.25
43330;BME280;28928;60.024;30.286;2022-07-09T02:09:23;100972.05;;;19.17;56.86
43330;BME280;28928;60.024;30.286;2022-07-09T02:11:54;100971.76;;;19.49;58.44
43330;BME280;28928;60.024;30.286;2022-07-09T02:14:25;100967.03;;;19.45;56.36
43330;BME280;28928;60.024;30.286;2022-07-09T02:16:57;100967.05;;;19.33;56.19
43330;BME280;28928;60.024;30.286;2022-07-09T02:22:07;100957.56;;;19.48;56.26
43330;BME280;28928;60.024;30.286;2022-07-09T02:24:38;100962.48;;;19.19;56.52
43330;BME280;28928;60.024;30.286;2022-07-09T02:27:09;100955.95;;;19.18;56.56
43330;BME280;28928;60.024;30.286;2022-07-09T02:29:39;100955.20;;;19.17;56.75
43330;BME280;28928;60.024;30.286;2022-07-09T02:32:11;100946.36;;;19.25;56.68
43330;BME280;28928;60.024;30.286;2022-07-09T02:34:42;100945.22;;;19.27;56.60
43330;BME280;28928;60.024;30.286;2022-07-09T02:37:13;100949.69;;;19.35;56.72
43330;BME280;28928;60.024;30.286;2022-07-09T02:39:44;100951.37;;;19.26;56.96
43330;BME280;28928;60.024;30.286;2022-07-09T02:42:14;100945.56;;;19.42;56.90
43330;BME280;28928;60.024;30.286;2022-07-09T02:44:45;100953.47;;;19.54;56.62
43330;BME280;28928;60.024;30.286;2022-07-09T02:47:16;100949.63;;;19.63;56.40
43330;BME280;28928;60.024;30.286;2022-07-09T02:49:47;100953.89;;;20.16;56.23
43330;BME280;28928;60.024;30.286;2022-07-09T02:52:18;100956.70;;;20.16;55.07
43330;BME280;28928;60.024;30.286;2022-07-09T02:54:49;100949.56;;;20.15;54.94
43330;BME280;28928;60.024;30.286;2022-07-09T02:57:19;100948.86;;;19.97;55.51
43330;BME280;28928;60.024;30.286;2022-07-09T02:59:50;100948.09;;;20.44;54.76
43330;BME280;28928;60.024;30.286;2022-07-09T03:02:21;100945.53;;;20.46;54.62
43330;BME280;28928;60.024;30.286;2022-07-09T03:04:52;100944.81;;;20.40;54.32
43330;BME280;28928;60.024;30.286;2022-07-09T03:07:23;100942.39;;;20.55;54.28
43330;BME280;28928;60.024;30.286;2022-07-09T03:09:54;100942.16;;;20.53;53.95
43330;BME280;28928;60.024;30.286;2022-07-09T03:12:25;100935.45;;;20.68;53.48
43330;BME280;28928;60.024;30.286;2022-07-09T03:14:56;100938.63;;;20.47;54.11
43330;BME280;28928;60.024;30.286;2022-07-09T03:17:27;100945.69;;;20.41;54.24
43330;BME280;28928;60.024;30.286;2022-07-09T03:19:58;100935.44;;;20.44;54.35
43330;BME280;28928;60.024;30.286;2022-07-09T03:22:29;100929.03;;;20.49;53.97
43330;BME280;28928;60.024;30.286;2022-07-09T03:24:59;100929.36;;;20.58;53.85
43330;BME280;28928;60.024;30.286;2022-07-09T03:27:31;100928.44;;;20.80;53.70
43330;BME280;28928;60.024;30.286;2022-07-09T03:30:02;100924.73;;;20.60;53.97
43330;BME280;28928;60.024;30.286;2022-07-09T03:32:34;100921.83;;;20.72;53.83
43330;BME280;28928;60.024;30.286;2022-07-09T03:35:06;100917.34;;;20.57;53.90
43330;BME280;28928;60.024;30.286;2022-07-09T03:37:37;100916.92;;;20.42;54.53
43330;BME280;28928;60.024;30.286;2022-07-09T03:40:10;100913.58;;;20.26;54.81
43330;BME280;28928;60.024;30.286;2022-07-09T03:42:41;100913.12;;;20.57;54.76
43330;BME280;28928;60.024;30.286;2022-07-09T03:45:12;100915.54;;;20.36;54.76
43330;BME280;28928;60.024;30.286;2022-07-09T03:47:43;100908.71;;;20.26;55.22
43330;BME280;28928;60.024;30.286;2022-07-09T03:50:14;100904.67;;;20.57;54.80
43330;BME280;28928;60.024;30.286;2022-07-09T03:52:45;100911.78;;;20.82;54.66
43330;BME280;28928;60.024;30.286;2022-07-09T03:55:16;100902.75;;;20.59;54.62
43330;BME280;28928;60.024;30.286;2022-07-09T03:57:47;100905.89;;;20.68;54.69
43330;BME280;28928;60.024;30.286;2022-07-09T04:02:59;100912.16;;;21.34;52.58
43330;BME280;28928;60.024;30.286;2022-07-09T04:05:30;100905.58;;;21.63;52.22
43330;BME280;28928;60.024;30.286;2022-07-09T04:08:01;100912.45;;;21.80;51.26
43330;BME280;28928;60.024;30.286;2022-07-09T04:10:32;100900.55;;;21.56;51.81
43330;BME280;28928;60.024;30.286;2022-07-09T04:13:03;100899.81;;;21.74;51.63
43330;BME280;28928;60.024;30.286;2022-07-09T04:15:34;100904.75;;;21.99;50.28
43330;BME280;28928;60.024;30.286;2022-07-09T04:18:05;100904.25;;;22.91;48.39
43330;BME280;28928;60.024;30.286;2022-07-09T04:20:35;100905.86;;;23.32;46.46
43330;BME280;28928;60.024;30.286;2022-07-09T04:23:07;100905.86;;;23.32;46.46
43330;BME280;28928;60.024;30.286;2022-07-09T04:25:38;100909.73;;;23.89;44.94
43330;BME280;28928;60.024;30.286;2022-07-09T04:28:09;100897.47;;;25.26;42.94
43330;BME280;28928;60.024;30.286;2022-07-09T04:30:39;100904.83;;;26.31;39.43
43330;BME280;28928;60.024;30.286;2022-07-09T04:33:11;100904.84;;;28.19;36.45
43330;BME280;28928;60.024;30.286;2022-07-09T04:35:42;100909.31;;;29.56;33.23
43330;BME280;28928;60.024;30.286;2022-07-09T04:38:13;100906.48;;;30.55;31.00
43330;BME280;28928;60.024;30.286;2022-07-09T04:40:44;100910.64;;;30.62;30.48
43330;BME280;28928;60.024;30.286;2022-07-09T04:43:14;100904.84;;;30.98;29.39
43330;BME280;28928;60.024;30.286;2022-07-09T04:45:45;100903.02;;;31.60;28.68
43330;BME280;28928;60.024;30.286;2022-07-09T04:48:16;100897.91;;;32.08;27.60
43330;BME280;28928;60.024;30.286;2022-07-09T04:50:47;100881.51;;;33.13;26.91
43330;BME280;28928;60.024;30.286;2022-07-09T04:53:18;100890.23;;;34.04;25.52
43330;BME280;28928;60.024;30.286;2022-07-09T04:58:28;100888.02;;;36.23;22.90
43330;BME280;28928;60.024;30.286;2022-07-09T05:06:17;100880.34;;;37.41;20.84
43330;BME280;28928;60.024;30.286;2022-07-09T05:08:48;100868.00;;;36.54;21.46
43330;BME280;28928;60.024;30.286;2022-07-09T05:11:19;100867.49;;;37.14;20.98
43330;BME280;28928;60.024;30.286;2022-07-09T05:13:50;100868.82;;;36.83;21.52
43330;BME280;28928;60.024;30.286;2022-07-09T05:16:21;100871.72;;;36.29;21.79
43330;BME280;28928;60.024;30.286;2022-07-09T05:18:52;100867.63;;;36.06;22.06
43330;BME280;28928;60.024;30.286;2022-07-09T05:24:00;100853.66;;;38.34;20.10
43330;BME280;28928;60.024;30.286;2022-07-09T05:26:31;100856.61;;;36.03;21.80
43330;BME280;28928;60.024;30.286;2022-07-09T05:29:02;100857.91;;;36.40;21.63
43330;BME280;28928;60.024;30.286;2022-07-09T05:31:33;100854.42;;;36.29;21.30
43330;BME280;28928;60.024;30.286;2022-07-09T05:34:04;100860.05;;;36.54;21.25
43330;BME280;28928;60.024;30.286;2022-07-09T05:36:35;100850.68;;;37.39;20.28
43330;BME280;28928;60.024;30.286;2022-07-09T05:39:07;100844.34;;;38.69;19.13
43330;BME280;28928;60.024;30.286;2022-07-09T05:41:38;100846.57;;;38.05;19.47
43330;BME280;28928;60.024;30.286;2022-07-09T05:44:08;100844.25;;;38.67;18.83
43330;BME280;28928;60.024;30.286;2022-07-09T05:46:39;100847.50;;;38.75;18.66
43330;BME280;28928;60.024;30.286;2022-07-09T05:49:10;100839.59;;;39.83;18.02
43330;BME280;28928;60.024;30.286;2022-07-09T05:51:41;100834.09;;;38.33;18.59
43330;BME280;28928;60.024;30.286;2022-07-09T05:54:11;100841.45;;;36.29;20.41
43330;BME280;28928;60.024;30.286;2022-07-09T05:59:21;100827.23;;;35.28;22.48
43330;BME280;28928;60.024;30.286;2022-07-09T06:01:52;100828.77;;;35.17;21.76
43330;BME280;28928;60.024;30.286;2022-07-09T06:04:23;100836.25;;;36.67;20.20
43330;BME280;28928;60.024;30.286;2022-07-09T06:09:33;100834.79;;;39.72;16.79
43330;BME280;28928;60.024;30.286;2022-07-09T06:12:05;100841.05;;;38.44;18.09
43330;BME280;28928;60.024;30.286;2022-07-09T06:14:36;100833.85;;;37.96;18.12
43330;BME280;28928;60.024;30.286;2022-07-09T06:19:44;100823.83;;;37.82;18.28
43330;BME280;28928;60.024;30.286;2022-07-09T06:22:15;100809.31;;;37.06;18.97
43330;BME280;28928;60.024;30.286;2022-07-09T06:24:46;100813.23;;;37.26;19.60
43330;BME280;28928;60.024;30.286;2022-07-09T06:27:17;100825.42;;;37.40;18.66
43330;BME280;28928;60.024;30.286;2022-07-09T06:29:47;100812.17;;;37.96;18.50
43330;BME280;28928;60.024;30.286;2022-07-09T06:32:18;100813.44;;;38.56;17.58
43330;BME280;28928;60.024;30.286;2022-07-09T06:34:49;100819.09;;;34.62;21.29
43330;BME280;28928;60.024;30.286;2022-07-09T06:37:20;100794.18;;;33.16;23.24
43330;BME280;28928;60.024;30.286;2022-07-09T06:42:28;100789.42;;;34.23;22.44
43330;BME280;28928;60.024;30.286;2022-07-09T06:45:01;100783.69;;;34.71;21.83
43330;BME280;28928;60.024;30.286;2022-07-09T06:50:11;100795.62;;;33.50;23.02
43330;BME280;28928;60.024;30.286;2022-07-09T06:52:42;100781.58;;;33.55;22.89
43330;BME280;28928;60.024;30.286;2022-07-09T06:55:13;100789.61;;;32.91;23.34
43330;BME280;28928;60.024;30.286;2022-07-09T06:57:44;100784.41;;;32.14;25.97
43330;BME280;28928;60.024;30.286;2022-07-09T07:00:15;100781.04;;;34.04;23.01
43330;BME280;28928;60.024;30.286;2022-07-09T07:02:46;100781.34;;;33.40;22.36
43330;BME280;28928;60.024;30.286;2022-07-09T07:05:17;100782.72;;;29.61;27.66
43330;BME280;28928;60.024;30.286;2022-07-09T07:07:48;100773.38;;;30.15;27.25
43330;BME280;28928;60.024;30.286;2022-07-09T07:10:19;100766.17;;;31.19;25.89
43330;BME280;28928;60.024;30.286;2022-07-09T07:12:50;100765.50;;;31.09;25.54
43330;BME280;28928;60.024;30.286;2022-07-09T07:15:21;100763.00;;;30.76;25.47
43330;BME280;28928;60.024;30.286;2022-07-09T07:20:29;100753.38;;;32.85;24.29
43330;BME280;28928;60.024;30.286;2022-07-09T07:23:00;100753.08;;;34.77;21.75
43330;BME280;28928;60.024;30.286;2022-07-09T07:25:31;100754.05;;;35.71;20.12
43330;BME280;28928;60.024;30.286;2022-07-09T07:28:02;100759.02;;;34.44;20.92
43330;BME280;28928;60.024;30.286;2022-07-09T07:33:13;100743.61;;;32.67;22.56
43330;BME280;28928;60.024;30.286;2022-07-09T07:38:22;100728.58;;;33.45;22.66
43330;BME280;28928;60.024;30.286;2022-07-09T07:43:32;100724.77;;;33.53;22.03
43330;BME280;28928;60.024;30.286;2022-07-09T07:46:05;100744.36;;;30.75;25.23
43330;BME280;28928;60.024;30.286;2022-07-09T07:51:13;100713.06;;;27.82;29.79
43330;BME280;28928;60.024;30.286;2022-07-09T07:56:23;100729.44;;;27.41;31.77
43330;BME280;28928;60.024;30.286;2022-07-09T08:01:32;100723.23;;;27.03;31.80
43330;BME280;28928;60.024;30.286;2022-07-09T08:06:41;100710.42;;;25.41;35.40
43330;BME280;28928;60.024;30.286;2022-07-09T08:11:50;100701.24;;;25.86;34.16
43330;BME280;28928;60.024;30.286;2022-07-09T08:17:00;100716.77;;;26.86;33.22
43330;BME280;28928;60.024;30.286;2022-07-09T08:19:31;100711.89;;;28.35;30.59
43330;BME280;28928;60.024;30.286;2022-07-09T08:24:41;100739.06;;;30.52;25.66
43330;BME280;28928;60.024;30.286;2022-07-09T08:29:51;100725.45;;;32.00;23.78
43330;BME280;28928;60.024;30.286;2022-07-09T08:32:22;100716.09;;;29.30;26.85
43330;BME280;28928;60.024;30.286;2022-07-09T08:37:31;100692.36;;;24.22;36.34
43330;BME280;28928;60.024;30.286;2022-07-09T08:42:44;100688.39;;;24.46;35.85
43330;BME280;28928;60.024;30.286;2022-07-09T08:47:56;100687.95;;;24.99;34.58
43330;BME280;28928;60.024;30.286;2022-07-09T08:53:06;100695.34;;;26.93;30.35
43330;BME280;28928;60.024;30.286;2022-07-09T08:55:38;100678.38;;;27.10;30.10
43330;BME280;28928;60.024;30.286;2022-07-09T08:58:11;100678.00;;;27.14;30.19
43330;BME280;28928;60.024;30.286;2022-07-09T09:00:42;100667.13;;;29.61;25.75
43330;BME280;28928;60.024;30.286;2022-07-09T09:03:13;100667.13;;;29.61;25.75
43330;BME280;28928;60.024;30.286;2022-07-09T09:05:44;100678.06;;;29.28;26.39
43330;BME280;28928;60.024;30.286;2022-07-09T09:08:20;100668.91;;;28.41;27.45
43330;BME280;28928;60.024;30.286;2022-07-09T09:10:52;100670.00;;;27.94;28.32
43330;BME280;28928;60.024;30.286;2022-07-09T09:13:23;100683.52;;;27.61;29.00
43330;BME280;28928;60.024;30.286;2022-07-09T09:18:42;100677.25;;;28.04;29.47
43330;BME280;28928;60.024;30.286;2022-07-09T09:23:54;100658.16;;;25.58;32.69
43330;BME280;28928;60.024;30.286;2022-07-09T09:29:06;100658.63;;;25.63;33.16
43330;BME280;28928;60.024;30.286;2022-07-09T09:31:38;100635.94;;;25.11;33.96
43330;BME280;28928;60.024;30.286;2022-07-09T09:34:15;100660.63;;;24.95;34.40
43330;BME280;28928;60.024;30.286;2022-07-09T09:36:47;100668.70;;;24.40;34.84
43330;BME280;28928;60.024;30.286;2022-07-09T09:42:01;100664.58;;;24.27;34.84
43330;BME280;28928;60.024;30.286;2022-07-09T09:47:11;100643.87;;;24.68;34.81
43330;BME280;28928;60.024;30.286;2022-07-09T09:49:43;100641.18;;;24.77;34.61
43330;BME280;28928;60.024;30.286;2022-07-09T09:52:15;100643.42;;;24.93;34.58
43330;BME280;28928;60.024;30.286;2022-07-09T09:54:49;100625.52;;;25.35;34.21
43330;BME280;28928;60.024;30.286;2022-07-09T09:57:22;100639.88;;;25.30;33.86
43330;BME280;28928;60.024;30.286;2022-07-09T10:02:34;100638.00;;;25.48;33.81
43330;BME280;28928;60.024;30.286;2022-07-09T10:07:46;100627.86;;;25.22;34.34
43330;BME280;28928;60.024;30.286;2022-07-09T10:13:00;100625.70;;;25.30;34.83
43330;BME280;28928;60.024;30.286;2022-07-09T10:15:33;100618.08;;;25.17;34.55
43330;BME280;28928;60.024;30.286;2022-07-09T10:20:54;100621.42;;;25.22;35.02
43330;BME280;28928;60.024;30.286;2022-07-09T10:28:42;100614.86;;;25.65;35.79
43330;BME280;28928;60.024;30.286;2022-07-09T10:34:01;100614.50;;;27.94;31.78
43330;BME280;28928;60.024;30.286;2022-07-09T10:36:30;100608.23;;;27.71;31.17
43330;BME280;28928;60.024;30.286;2022-07-09T10:39:10;100605.85;;;27.60;31.76
43330;BME280;28928;60.024;30.286;2022-07-09T10:44:12;100602.16;;;27.49;31.64
43330;BME280;28928;60.024;30.286;2022-07-09T10:49:35;100591.56;;;26.60;33.03
